Time;durP1;ratioP1;P1;durP2;ratioP2;P2;SDS_P1;SDS_P2;PMS_P1;PMS_P2;Temp;Humidity;BMP_temperature;BMP_pressure;BME280_temperature;BME280_humidity;BME280_pressure;Samples;Min_cycle;Max_cycle;Signal;HPM_P1;HPM_P2
2023/01/31 00:00:14;;;;;;;62.78;6.65;;;;;;;;;;5074435;28;20213;-69
2023/01/31 00:02:41;;;;;;;65.82;6.40;;;;;;;;;;5075096;28;20211;-68
2023/01/31 00:05:08;;;;;;;64.30;6.72;;;;;;;;;;5075009;28;20205;-68
2023/01/31 00:07:35;;;;;;;63.75;6.53;;;;;;;;;;5075003;28;20208;-68
2023/01/31 00:10:02;;;;;;;65.70;7.28;;;;;;;;;;5074235;28;20209;-69
2023/01/31 00:12:30;;;;;;;66.32;6.55;;;;;;;;;;5074840;28;20212;-68
2023/01/31 00:14:57;;;;;;;63.42;6.50;;;;;;;;;;5074847;28;20727;-68
2023/01/31 00:17:25;;;;;;;66.45;7.28;;;;;;;;;;5074953;28;20209;-68
2023/01/31 00:19:52;;;;;;;63.63;6.75;;;;;;;;;;5073814;28;20252;-68
2023/01/31 00:22:19;;;;;;;64.97;6.60;;;;;;;;;;5074947;28;20224;-68
2023/01/31 00:24:46;;;;;;;62.45;6.28;;;;;;;;;;5074585;28;20245;-68
2023/01/31 00:27:13;;;;;;;62.60;6.55;;;;;;;;;;5074609;28;20232;-68
2023/01/31 00:29:40;;;;;;;66.88;6.93;;;;;;;;;;5073774;28;20211;-68
2023/01/31 00:32:07;;;;;;;63.08;7.13;;;;;;;;;;5074404;28;20684;-68
2023/01/31 00:34:36;;;;;;;65.50;6.88;;;;;;;;;;5074575;28;20254;-68
2023/01/31 00:37:03;;;;;;;64.20;6.72;;;;;;;;;;5074649;28;20201;-68
2023/01/31 00:39:30;;;;;;;64.47;6.45;;;;;;;;;;5073727;28;20229;-68
2023/01/31 00:41:57;;;;;;;62.80;6.85;;;;;;;;;;5074464;28;20204;-68
2023/01/31 00:44:24;;;;;;;62.63;6.70;;;;;;;;;;5074484;28;20225;-68
2023/01/31 00:46:51;;;;;;;62.13;6.15;;;;;;;;;;5074281;28;20212;-68
2023/01/31 00:49:18;;;;;;;64.15;6.65;;;;;;;;;;5073682;28;20200;-68
2023/01/31 00:51:47;;;;;;;66.97;7.00;;;;;;;;;;5074400;28;20212;-69
2023/01/31 00:54:14;;;;;;;66.68;7.25;;;;;;;;;;5074153;28;20228;-68
2023/01/31 00:56:41;;;;;;;63.35;6.90;;;;;;;;;;5073987;28;20208;-68
2023/01/31 00:59:08;;;;;;;61.60;5.50;;;;;;;;;;5073029;28;20646;-68
2023/01/31 01:01:36;;;;;;;65.57;6.38;;;;;;;;;;5073857;28;20212;-69
2023/01/31 01:04:03;;;;;;;62.53;6.10;;;;;;;;;;5073814;28;20236;-68
2023/01/31 01:06:30;;;;;;;60.50;6.05;;;;;;;;;;5074031;28;20232;-68
2023/01/31 01:08:59;;;;;;;64.35;6.55;;;;;;;;;;5073255;28;20580;-68
2023/01/31 01:11:27;;;;;;;67.40;6.10;;;;;;;;;;5074048;28;20622;-69
2023/01/31 01:13:54;;;;;;;65.47;6.13;;;;;;;;;;5073627;28;20237;-69
2023/01/31 01:16:22;;;;;;;64.70;7.32;;;;;;;;;;5073876;28;20211;-68
2023/01/31 01:18:49;;;;;;;67.05;6.90;;;;;;;;;;5072904;28;20229;-68
2023/01/31 01:21:17;;;;;;;63.15;6.80;;;;;;;;;;5073847;28;20219;-68
2023/01/31 01:23:46;;;;;;;66.97;6.47;;;;;;;;;;5073454;28;20245;-68
2023/01/31 01:26:15;;;;;;;64.28;5.72;;;;;;;;;;5073445;28;20255;-68
2023/01/31 01:28:42;;;;;;;67.15;6.75;;;;;;;;;;5072653;28;20209;-69
2023/01/31 01:31:10;;;;;;;62.90;6.65;;;;;;;;;;5073383;28;20677;-68
2023/01/31 01:33:37;;;;;;;62.05;5.75;;;;;;;;;;5073445;28;20225;-68
2023/01/31 01:36:06;;;;;;;62.72;5.78;;;;;;;;;;5073795;28;20209;-68
2023/01/31 01:38:34;;;;;;;66.88;7.07;;;;;;;;;;5072742;28;20227;-68
2023/01/31 01:41:01;;;;;;;63.22;6.55;;;;;;;;;;5073169;28;20209;-69
2023/01/31 01:43:43;;;;;;;62.78;6.72;;;;;;;;;;5073213;28;20228;-68
2023/01/31 01:46:11;;;;;;;63.33;6.55;;;;;;;;;;5073075;28;20212;-68
2023/01/31 01:48:39;;;;;;;65.40;6.00;;;;;;;;;;5072421;28;20201;-68
2023/01/31 01:51:06;;;;;;;63.30;6.15;;;;;;;;;;5073006;28;20220;-68
2023/01/31 01:53:35;;;;;;;64.43;7.55;;;;;;;;;;5072919;28;20233;-69
2023/01/31 01:56:04;;;;;;;67.15;6.55;;;;;;;;;;5073123;28;20232;-68
2023/01/31 01:58:34;;;;;;;65.35;7.55;;;;;;;;;;5072624;28;20229;-68
2023/01/31 02:01:04;;;;;;;61.85;6.03;;;;;;;;;;5072935;28;20205;-68
2023/01/31 02:03:31;;;;;;;63.45;7.25;;;;;;;;;;5073077;28;20593;-68
2023/01/31 02:05:59;;;;;;;66.50;6.72;;;;;;;;;;5072700;28;20205;-68
2023/01/31 02:08:27;;;;;;;62.58;6.05;;;;;;;;;;5072517;28;20196;-68
2023/01/31 02:10:57;;;;;;;62.92;6.20;;;;;;;;;;5071924;28;20207;-68
2023/01/31 02:13:25;;;;;;;64.82;6.43;;;;;;;;;;5072616;28;20620;-68
2023/01/31 02:15:52;;;;;;;66.25;7.60;;;;;;;;;;5072510;28;20677;-68
2023/01/31 02:18:22;;;;;;;63.55;6.72;;;;;;;;;;5072382;28;20212;-68
2023/01/31 02:21:03;;;;;;;64.15;6.55;;;;;;;;;;5071627;28;20209;-68
2023/01/31 02:23:49;;;;;;;70.45;7.05;;;;;;;;;;5059766;28;20237;-68
2023/01/31 02:26:34;;;;;;;63.55;6.72;;;;;;;;;;5072554;28;20215;-68
2023/01/31 02:29:10;;;;;;;63.58;6.03;;;;;;;;;;5071460;28;20227;-68
2023/01/31 02:31:49;;;;;;;68.47;6.90;;;;;;;;;;5072515;28;20212;-68
2023/01/31 02:34:31;;;;;;;64.70;7.53;;;;;;;;;;5072267;28;20228;-69
2023/01/31 02:37:03;;;;;;;65.60;6.35;;;;;;;;;;5072199;28;20695;-68
2023/01/31 02:39:39;;;;;;;66.32;7.63;;;;;;;;;;5071205;28;20599;-68
2023/01/31 02:42:11;;;;;;;67.15;6.72;;;;;;;;;;5072290;28;20212;-69
2023/01/31 02:44:59;;;;;;;63.33;7.13;;;;;;;;;;5072159;28;20233;-68
2023/01/31 02:47:30;;;;;;;65.78;7.32;;;;;;;;;;5067990;28;20679;-69
2023/01/31 02:53:05;;;;;;;67.10;7.32;;;;;;;;;;5072012;28;20334;-68
2023/01/31 02:58:19;;;;;;;63.42;7.25;;;;;;;;;;5071795;28;20674;-68
2023/01/31 03:00:47;;;;;;;64.85;7.38;;;;;;;;;;5071199;28;20288;-68
2023/01/31 03:03:19;;;;;;;69.45;8.05;;;;;;;;;;5071944;28;20221;-69
2023/01/31 03:05:57;;;;;;;64.75;7.43;;;;;;;;;;5071953;28;20205;-68
2023/01/31 03:11:31;;;;;;;67.45;7.82;;;;;;;;;;5071946;28;20282;-67
2023/01/31 03:14:03;;;;;;;66.22;7.07;;;;;;;;;;5071620;28;20236;-68
2023/01/31 03:19:16;;;;;;;66.53;7.50;;;;;;;;;;5047865;28;20225;-68
2023/01/31 03:21:46;;;;;;;67.57;7.30;;;;;;;;;;5071562;28;20236;-68
2023/01/31 03:24:13;;;;;;;70.05;8.38;;;;;;;;;;5071532;28;20233;-69
2023/01/31 03:26:42;;;;;;;69.13;8.15;;;;;;;;;;5071394;28;20208;-68
2023/01/31 03:29:11;;;;;;;61.45;6.95;;;;;;;;;;5071062;28;20204;-68
2023/01/31 03:31:39;;;;;;;66.35;6.60;;;;;;;;;;5071684;28;20218;-68
2023/01/31 03:34:08;;;;;;;66.50;7.00;;;;;;;;;;5071727;28;20228;-68
2023/01/31 03:36:39;;;;;;;66.65;8.65;;;;;;;;;;5071538;28;20596;-68
2023/01/31 03:39:12;;;;;;;69.88;7.72;;;;;;;;;;5070664;28;20225;-69
2023/01/31 03:41:45;;;;;;;63.22;6.90;;;;;;;;;;5071383;28;20201;-68
2023/01/31 03:44:15;;;;;;;65.05;8.18;;;;;;;;;;5071653;28;20258;-68
2023/01/31 03:46:44;;;;;;;67.00;7.65;;;;;;;;;;5071528;28;20228;-68
2023/01/31 03:49:13;;;;;;;66.80;7.68;;;;;;;;;;5070544;28;20212;-68
2023/01/31 03:51:43;;;;;;;71.35;7.43;;;;;;;;;;5071241;28;20637;-69
2023/01/31 03:54:13;;;;;;;70.22;7.88;;;;;;;;;;5071453;28;20229;-68
2023/01/31 03:56:43;;;;;;;68.47;8.63;;;;;;;;;;5071412;28;20212;-68
2023/01/31 03:59:13;;;;;;;67.13;8.00;;;;;;;;;;5070582;28;20323;-68
2023/01/31 04:01:42;;;;;;;65.82;8.23;;;;;;;;;;5071312;28;20204;-69
2023/01/31 04:04:11;;;;;;;64.65;6.70;;;;;;;;;;5071169;28;20228;-68
2023/01/31 04:06:39;;;;;;;64.05;7.32;;;;;;;;;;5071420;28;20205;-68
2023/01/31 04:09:06;;;;;;;79.70;8.43;;;;;;;;;;5070584;28;20205;-68
2023/01/31 04:11:36;;;;;;;65.55;6.85;;;;;;;;;;5071307;28;20214;-68
2023/01/31 04:14:04;;;;;;;68.03;8.13;;;;;;;;;;5071115;28;20717;-68
2023/01/31 04:16:32;;;;;;;68.60;7.75;;;;;;;;;;5071059;28;20204;-69
2023/01/31 04:18:59;;;;;;;63.28;7.50;;;;;;;;;;5070238;28;20213;-69
2023/01/31 04:21:26;;;;;;;69.13;7.60;;;;;;;;;;5071223;28;20209;-68
2023/01/31 04:23:53;;;;;;;66.10;7.70;;;;;;;;;;5071160;28;20233;-69
2023/01/31 04:26:20;;;;;;;65.10;6.38;;;;;;;;;;5070806;28;20201;-68
2023/01/31 04:28:47;;;;;;;65.22;6.90;;;;;;;;;;5070238;28;20215;-68
2023/01/31 04:31:15;;;;;;;64.47;7.03;;;;;;;;;;5070906;28;20207;-68
2023/01/31 04:33:43;;;;;;;67.15;7.60;;;;;;;;;;5073580;28;20713;-69
2023/01/31 04:36:10;;;;;;;65.35;6.28;;;;;;;;;;5074649;28;20205;-68
2023/01/31 04:38:37;;;;;;;66.30;6.95;;;;;;;;;;5074221;28;20208;-68
2023/01/31 04:41:04;;;;;;;66.53;7.10;;;;;;;;;;5074232;28;20220;-68
2023/01/31 04:43:32;;;;;;;66.47;6.57;;;;;;;;;;5074218;28;20228;-68
2023/01/31 04:45:59;;;;;;;67.47;7.00;;;;;;;;;;5074427;28;20215;-68
2023/01/31 04:48:26;;;;;;;65.20;6.35;;;;;;;;;;5074348;28;20208;-68
2023/01/31 04:50:54;;;;;;;65.88;7.05;;;;;;;;;;5074025;28;20204;-69
2023/01/31 04:53:21;;;;;;;66.75;7.38;;;;;;;;;;5074209;28;20232;-68
2023/01/31 04:55:48;;;;;;;67.25;7.28;;;;;;;;;;5074222;28;20211;-68
2023/01/31 04:58:15;;;;;;;68.05;7.05;;;;;;;;;;5073823;28;20219;-68
2023/01/31 05:00:44;;;;;;;62.88;7.75;;;;;;;;;;5073503;28;20232;-67
2023/01/31 05:03:11;;;;;;;66.30;8.45;;;;;;;;;;5074090;28;20232;-68
2023/01/31 05:05:38;;;;;;;64.18;6.72;;;;;;;;;;5074074;28;20205;-68
2023/01/31 05:08:07;;;;;;;66.68;7.65;;;;;;;;;;5073973;28;20205;-68
2023/01/31 05:10:36;;;;;;;68.15;8.55;;;;;;;;;;5073067;28;20204;-68
2023/01/31 05:13:03;;;;;;;66.97;7.90;;;;;;;;;;5073734;28;20227;-69
2023/01/31 05:15:31;;;;;;;64.28;7.00;;;;;;;;;;5074110;28;20207;-68
2023/01/31 05:18:01;;;;;;;65.05;7.40;;;;;;;;;;5073663;28;20207;-68
2023/01/31 05:20:29;;;;;;;66.07;7.65;;;;;;;;;;5073140;28;20231;-68
2023/01/31 05:22:56;;;;;;;70.10;8.75;;;;;;;;;;5073611;28;20266;-68
2023/01/31 05:25:25;;;;;;;64.82;7.63;;;;;;;;;;5073355;28;20226;-68
2023/01/31 05:27:52;;;;;;;77.93;8.25;;;;;;;;;;5073936;28;20307;-68
2023/01/31 05:30:22;;;;;;;65.22;7.25;;;;;;;;;;5072672;28;20471;-68
2023/01/31 05:32:50;;;;;;;71.70;9.00;;;;;;;;;;5073425;28;20205;-67
2023/01/31 05:35:17;;;;;;;65.20;6.88;;;;;;;;;;5073485;28;20207;-68
2023/01/31 05:37:45;;;;;;;73.80;8.20;;;;;;;;;;5073296;28;20692;-69
2023/01/31 05:40:12;;;;;;;66.38;8.27;;;;;;;;;;5072371;28;20230;-68
2023/01/31 05:42:41;;;;;;;71.68;7.78;;;;;;;;;;5073147;28;20782;-68
2023/01/31 05:45:10;;;;;;;65.28;8.35;;;;;;;;;;5072110;28;20210;-68
2023/01/31 05:47:37;;;;;;;68.13;8.00;;;;;;;;;;5073066;28;20671;-68
2023/01/31 05:50:05;;;;;;;65.68;7.05;;;;;;;;;;5072356;28;20204;-68
2023/01/31 05:52:32;;;;;;;64.28;8.60;;;;;;;;;;5072842;28;20208;-68
2023/01/31 05:54:59;;;;;;;66.20;7.53;;;;;;;;;;5073166;28;20233;-68
2023/01/31 05:57:26;;;;;;;71.10;8.30;;;;;;;;;;5073154;28;20215;-68
2023/01/31 05:59:54;;;;;;;67.65;7.57;;;;;;;;;;5071958;28;20314;-69
2023/01/31 06:02:21;;;;;;;68.10;9.60;;;;;;;;;;5072851;28;20215;-68
2023/01/31 06:04:49;;;;;;;65.85;7.88;;;;;;;;;;5072579;28;20245;-68
2023/01/31 06:07:16;;;;;;;66.13;8.98;;;;;;;;;;5072653;28;20684;-68
2023/01/31 06:09:43;;;;;;;67.53;9.05;;;;;;;;;;5071668;28;20198;-67
2023/01/31 06:12:12;;;;;;;67.32;8.63;;;;;;;;;;5072528;28;20214;-68
2023/01/31 06:14:39;;;;;;;69.70;8.93;;;;;;;;;;5072749;28;20227;-69
2023/01/31 06:17:08;;;;;;;70.10;9.50;;;;;;;;;;5072550;28;20431;-68
2023/01/31 06:19:35;;;;;;;70.05;10.13;;;;;;;;;;5071645;28;20556;-68
2023/01/31 06:22:02;;;;;;;72.45;10.57;;;;;;;;;;5072703;28;20215;-68
2023/01/31 06:24:29;;;;;;;70.97;7.40;;;;;;;;;;5072200;28;20236;-68
2023/01/31 06:26:56;;;;;;;66.85;9.05;;;;;;;;;;5072541;28;20210;-68
2023/01/31 06:29:24;;;;;;;64.78;7.45;;;;;;;;;;5071662;28;20202;-68
2023/01/31 06:31:52;;;;;;;68.35;7.85;;;;;;;;;;5072293;28;20208;-68
2023/01/31 06:34:21;;;;;;;70.30;7.93;;;;;;;;;;5072222;28;20233;-67
2023/01/31 06:36:48;;;;;;;73.22;9.05;;;;;;;;;;5072463;28;20212;-69
2023/01/31 06:39:15;;;;;;;70.18;7.03;;;;;;;;;;5071756;28;20585;-69
2023/01/31 06:41:42;;;;;;;67.97;8.55;;;;;;;;;;5072161;28;20222;-69
2023/01/31 06:44:09;;;;;;;69.32;8.63;;;;;;;;;;5072225;28;20233;-69
2023/01/31 06:46:37;;;;;;;66.95;8.35;;;;;;;;;;5072124;28;20206;-68
2023/01/31 06:49:04;;;;;;;68.25;8.80;;;;;;;;;;5071366;28;20211;-68
2023/01/31 06:51:33;;;;;;;67.68;8.98;;;;;;;;;;5072031;28;20207;-69
2023/01/31 06:54:00;;;;;;;68.97;7.78;;;;;;;;;;5072023;28;20234;-67
2023/01/31 06:56:27;;;;;;;64.70;7.28;;;;;;;;;;5071572;28;20689;-68
2023/01/31 06:58:54;;;;;;;67.13;7.85;;;;;;;;;;5071170;28;20214;-68
2023/01/31 07:01:23;;;;;;;69.32;7.75;;;;;;;;;;5071792;28;20231;-68
2023/01/31 07:03:50;;;;;;;64.95;7.70;;;;;;;;;;5072087;28;20235;-68
2023/01/31 07:06:19;;;;;;;69.07;8.18;;;;;;;;;;5071881;28;20210;-68
2023/01/31 07:08:47;;;;;;;69.82;8.00;;;;;;;;;;5071153;28;20203;-69
2023/01/31 07:11:14;;;;;;;66.65;9.05;;;;;;;;;;5072254;28;20199;-68
2023/01/31 07:13:42;;;;;;;62.70;8.85;;;;;;;;;;5071559;28;20224;-68
2023/01/31 07:16:09;;;;;;;65.00;8.15;;;;;;;;;;5071615;28;20222;-68
2023/01/31 07:18:36;;;;;;;65.97;8.00;;;;;;;;;;5071123;28;20230;-68
2023/01/31 07:21:03;;;;;;;68.07;8.02;;;;;;;;;;5071666;28;20232;-68
2023/01/31 07:23:30;;;;;;;66.35;7.97;;;;;;;;;;5071615;28;20238;-68
2023/01/31 07:26:00;;;;;;;68.88;9.18;;;;;;;;;;5071639;28;20214;-68
2023/01/31 07:28:28;;;;;;;68.10;9.23;;;;;;;;;;5071611;28;20325;-68
2023/01/31 07:30:55;;;;;;;65.00;8.05;;;;;;;;;;5071437;28;20202;-67
2023/01/31 07:33:22;;;;;;;67.63;8.70;;;;;;;;;;5071552;28;20242;-68
2023/01/31 07:35:49;;;;;;;72.43;8.43;;;;;;;;;;5071522;28;20228;-67
2023/01/31 07:38:16;;;;;;;69.15;8.18;;;;;;;;;;5071524;28;20206;-68
2023/01/31 07:40:43;;;;;;;72.30;8.73;;;;;;;;;;5070896;28;20225;-68
2023/01/31 07:43:11;;;;;;;68.85;9.23;;;;;;;;;;5071489;28;20226;-68
2023/01/31 07:45:41;;;;;;;67.97;7.68;;;;;;;;;;5071725;28;20215;-68
2023/01/31 07:48:08;;;;;;;66.40;8.23;;;;;;;;;;5071680;28;20222;-68
2023/01/31 07:50:35;;;;;;;72.35;8.25;;;;;;;;;;5070521;28;20215;-69
2023/01/31 07:53:03;;;;;;;65.90;8.38;;;;;;;;;;5071475;28;20227;-69
2023/01/31 07:55:30;;;;;;;70.20;7.57;;;;;;;;;;5071324;28;20692;-68
2023/01/31 07:57:57;;;;;;;67.60;8.50;;;;;;;;;;5071491;28;20212;-68
2023/01/31 08:03:34;;;;;;;64.55;8.00;;;;;;;;;;5071295;28;20323;-69
2023/01/31 08:06:01;;;;;;;64.97;7.78;;;;;;;;;;5071288;28;20199;-68
2023/01/31 08:08:29;;;;;;;65.75;8.23;;;;;;;;;;5073568;28;20676;-68
2023/01/31 08:10:56;;;;;;;70.80;9.23;;;;;;;;;;5074794;28;20198;-68
2023/01/31 08:13:25;;;;;;;66.93;7.55;;;;;;;;;;5074990;28;20231;-68
2023/01/31 08:15:54;;;;;;;65.95;8.65;;;;;;;;;;5074906;28;20208;-69
2023/01/31 08:18:21;;;;;;;83.88;9.02;;;;;;;;;;5074728;28;20204;-69
2023/01/31 08:20:48;;;;;;;70.88;9.38;;;;;;;;;;5074487;28;20231;-68
2023/01/31 08:23:15;;;;;;;68.28;8.05;;;;;;;;;;5074791;28;20234;-68
2023/01/31 08:25:43;;;;;;;65.18;7.20;;;;;;;;;;5074976;28;20215;-68
2023/01/31 08:28:10;;;;;;;67.28;8.63;;;;;;;;;;5074715;28;20215;-67
2023/01/31 08:30:40;;;;;;;67.57;7.85;;;;;;;;;;5073922;28;20200;-67
2023/01/31 08:33:09;;;;;;;63.58;6.70;;;;;;;;;;5074791;28;20281;-68
2023/01/31 08:35:37;;;;;;;65.50;7.07;;;;;;;;;;5074759;28;20314;-67
2023/01/31 08:38:04;;;;;;;70.32;7.70;;;;;;;;;;5074437;28;20208;-67
2023/01/31 08:40:32;;;;;;;68.45;7.22;;;;;;;;;;5073658;28;20233;-67
2023/01/31 08:43:00;;;;;;;61.20;7.13;;;;;;;;;;5074539;28;20225;-67
2023/01/31 08:45:27;;;;;;;63.65;7.78;;;;;;;;;;5074265;28;20205;-67
2023/01/31 08:47:55;;;;;;;68.35;7.35;;;;;;;;;;5074456;28;20212;-68
2023/01/31 08:50:23;;;;;;;70.13;7.18;;;;;;;;;;5073669;28;20201;-68
2023/01/31 08:52:54;;;;;;;64.10;6.18;;;;;;;;;;5074358;28;20300;-68
2023/01/31 08:55:21;;;;;;;65.95;6.88;;;;;;;;;;5074207;28;20244;-67
2023/01/31 08:57:48;;;;;;;70.57;7.60;;;;;;;;;;5074045;28;20209;-67
2023/01/31 09:00:16;;;;;;;62.03;6.07;;;;;;;;;;5073124;28;20205;-67
2023/01/31 09:02:45;;;;;;;64.82;6.75;;;;;;;;;;5074151;28;20213;-68
2023/01/31 09:05:12;;;;;;;64.72;6.07;;;;;;;;;;5074032;28;20243;-67
2023/01/31 09:07:41;;;;;;;65.05;6.53;;;;;;;;;;5073875;28;20300;-67
2023/01/31 09:10:08;;;;;;;63.47;5.85;;;;;;;;;;5073179;28;20205;-68
2023/01/31 09:12:35;;;;;;;68.03;5.93;;;;;;;;;;5073728;28;20202;-68
2023/01/31 09:15:03;;;;;;;63.83;5.57;;;;;;;;;;5073979;28;20205;-68
2023/01/31 09:17:30;;;;;;;66.90;5.95;;;;;;;;;;5073802;28;20202;-67
2023/01/31 09:19:57;;;;;;;68.65;5.90;;;;;;;;;;5072712;28;20224;-68
2023/01/31 09:22:24;;;;;;;63.10;5.73;;;;;;;;;;5073825;28;20232;-67
2023/01/31 09:24:52;;;;;;;65.03;6.80;;;;;;;;;;5073961;28;20512;-68
2023/01/31 09:27:19;;;;;;;63.85;5.22;;;;;;;;;;5073805;28;20459;-68
2023/01/31 09:29:47;;;;;;;65.60;5.43;;;;;;;;;;5072980;28;20215;-67
2023/01/31 09:32:14;;;;;;;62.67;5.22;;;;;;;;;;5073486;28;20447;-68
2023/01/31 09:34:41;;;;;;;60.20;5.07;;;;;;;;;;5073409;28;20225;-68
2023/01/31 09:37:08;;;;;;;63.45;5.70;;;;;;;;;;5073559;28;20447;-68
2023/01/31 09:39:35;;;;;;;70.37;6.70;;;;;;;;;;5072428;28;20298;-67
2023/01/31 09:42:10;;;;;;;63.75;5.18;;;;;;;;;;5073570;28;20475;-68
2023/01/31 09:44:40;;;;;;;64.43;5.82;;;;;;;;;;5073362;28;20228;-67
2023/01/31 09:47:10;;;;;;;66.37;6.53;;;;;;;;;;5073357;28;20212;-68
2023/01/31 09:49:43;;;;;;;62.93;4.83;;;;;;;;;;5072378;28;20452;-68
2023/01/31 09:52:11;;;;;;;64.20;5.60;;;;;;;;;;5073023;28;20994;-68
2023/01/31 09:54:39;;;;;;;67.30;5.93;;;;;;;;;;5073109;28;20471;-68
2023/01/31 09:57:13;;;;;;;66.40;6.40;;;;;;;;;;5073218;28;20970;-68
2023/01/31 09:59:47;;;;;;;71.40;6.33;;;;;;;;;;5072325;28;20791;-68
2023/01/31 10:02:30;;;;;;;61.03;5.90;;;;;;;;;;5072844;28;20479;-68
2023/01/31 10:05:04;;;;;;;65.73;6.00;;;;;;;;;;5072945;28;20475;-68
2023/01/31 10:07:33;;;;;;;60.78;5.40;;;;;;;;;;5072752;28;20538;-68
2023/01/31 10:10:03;;;;;;;65.37;6.20;;;;;;;;;;5072130;28;20205;-68
2023/01/31 10:12:34;;;;;;;64.03;4.93;;;;;;;;;;5072775;28;20487;-68
2023/01/31 10:15:04;;;;;;;66.27;6.57;;;;;;;;;;5072562;28;20451;-68
2023/01/31 10:17:34;;;;;;;69.10;6.20;;;;;;;;;;5072973;28;20458;-67
2023/01/31 10:20:02;;;;;;;63.10;5.37;;;;;;;;;;5071907;28;20454;-68
2023/01/31 10:22:35;;;;;;;65.50;6.20;;;;;;;;;;5072549;28;20494;-67
2023/01/31 10:25:18;;;;;;;65.20;6.10;;;;;;;;;;5072286;28;20459;-68
2023/01/31 10:27:49;;;;;;;68.10;5.50;;;;;;;;;;5072617;28;20458;-68
2023/01/31 10:30:18;;;;;;;65.15;5.32;;;;;;;;;;5071208;28;20579;-68
2023/01/31 10:32:47;;;;;;;65.63;6.32;;;;;;;;;;5072346;28;20577;-68
2023/01/31 10:35:16;;;;;;;65.72;5.80;;;;;;;;;;5072287;28;20211;-68
2023/01/31 10:37:45;;;;;;;70.28;6.55;;;;;;;;;;5049617;28;20436;-69
2023/01/31 10:40:14;;;;;;;63.58;5.20;;;;;;;;;;5051488;28;20206;-68
2023/01/31 10:42:43;;;;;;;61.97;5.63;;;;;;;;;;5069998;28;20224;-68
2023/01/31 10:45:16;;;;;;;65.70;5.23;;;;;;;;;;5071715;28;20212;-68
2023/01/31 10:47:47;;;;;;;73.00;6.43;;;;;;;;;;5071981;28;20860;-68
2023/01/31 10:50:15;;;;;;;72.95;6.97;;;;;;;;;;5070916;28;20443;-67
2023/01/31 10:52:50;;;;;;;62.17;5.67;;;;;;;;;;5071659;28;20224;-68
2023/01/31 10:55:32;;;;;;;65.97;5.67;;;;;;;;;;5071891;28;20450;-68
2023/01/31 10:58:00;;;;;;;71.38;5.07;;;;;;;;;;5071958;28;20463;-68
2023/01/31 11:00:30;;;;;;;63.30;5.20;;;;;;;;;;5071085;28;20205;-67
2023/01/31 11:02:58;;;;;;;61.75;4.80;;;;;;;;;;5071679;28;20491;-68
2023/01/31 11:05:26;;;;;;;64.70;4.87;;;;;;;;;;5071649;28;20211;-68
2023/01/31 11:07:53;;;;;;;61.87;5.13;;;;;;;;;;5071939;28;20820;-66
2023/01/31 11:10:22;;;;;;;64.57;5.53;;;;;;;;;;5071071;28;20792;-68
2023/01/31 11:12:53;;;;;;;65.57;5.18;;;;;;;;;;5071602;28;20451;-68
2023/01/31 11:15:21;;;;;;;63.60;5.80;;;;;;;;;;5071560;28;20209;-68
2023/01/31 11:17:50;;;;;;;62.50;5.30;;;;;;;;;;5071983;28;20521;-68
2023/01/31 11:20:22;;;;;;;61.83;5.00;;;;;;;;;;5070981;28;20452;-68
2023/01/31 11:22:49;;;;;;;65.50;5.73;;;;;;;;;;5071402;28;20850;-68
2023/01/31 11:25:19;;;;;;;62.15;4.70;;;;;;;;;;5071459;28;20456;-68
2023/01/31 11:27:47;;;;;;;78.40;5.67;;;;;;;;;;5071487;28;20205;-68
2023/01/31 11:30:21;;;;;;;65.00;5.10;;;;;;;;;;5070550;28;20451;-69
2023/01/31 11:32:49;;;;;;;65.07;5.57;;;;;;;;;;5071533;28;20533;-67
2023/01/31 11:35:25;;;;;;;64.83;4.93;;;;;;;;;;5071676;28;20447;-68
2023/01/31 11:37:53;;;;;;;63.13;5.13;;;;;;;;;;5071390;28;20500;-69
2023/01/31 11:40:22;;;;;;;64.70;5.73;;;;;;;;;;5070665;28;20439;-69
2023/01/31 11:42:52;;;;;;;64.00;5.33;;;;;;;;;;5074509;28;20483;-69
2023/01/31 11:45:21;;;;;;;67.50;5.53;;;;;;;;;;5075692;28;20447;-68
2023/01/31 11:47:51;;;;;;;64.00;5.73;;;;;;;;;;5075610;28;20546;-69
2023/01/31 11:50:22;;;;;;;61.40;4.07;;;;;;;;;;5074800;28;20453;-69
2023/01/31 11:52:54;;;;;;;63.37;4.63;;;;;;;;;;5075030;28;20454;-69
2023/01/31 11:55:21;;;;;;;60.27;4.60;;;;;;;;;;5075497;28;20447;-69
2023/01/31 11:57:55;;;;;;;61.33;5.00;;;;;;;;;;5075371;28;20451;-69
2023/01/31 12:00:23;;;;;;;66.50;5.07;;;;;;;;;;5074439;28;20446;-68
2023/01/31 12:02:54;;;;;;;64.33;4.53;;;;;;;;;;5073696;28;20515;-69
2023/01/31 12:05:33;;;;;;;63.83;4.80;;;;;;;;;;5074958;28;20828;-69
2023/01/31 12:08:00;;;;;;;70.97;6.30;;;;;;;;;;5075180;28;20457;-68
2023/01/31 12:10:36;;;;;;;63.90;5.10;;;;;;;;;;5074203;28;20961;-69
2023/01/31 12:13:09;;;;;;;66.30;6.03;;;;;;;;;;5075393;28;20459;-68
2023/01/31 12:15:36;;;;;;;65.68;5.25;;;;;;;;;;5074894;28;20447;-69
2023/01/31 12:18:09;;;;;;;62.33;5.07;;;;;;;;;;5075045;28;20208;-68
2023/01/31 12:20:39;;;;;;;67.77;6.43;;;;;;;;;;5074138;28;20450;-68
2023/01/31 12:23:12;;;;;;;63.30;4.93;;;;;;;;;;5075023;28;20483;-70
2023/01/31 12:25:48;;;;;;;64.33;4.63;;;;;;;;;;5074893;28;20438;-70
2023/01/31 12:28:20;;;;;;;60.80;4.60;;;;;;;;;;5074461;28;20464;-69
2023/01/31 12:30:55;;;;;;;61.87;4.10;;;;;;;;;;5073956;28;20452;-69
2023/01/31 12:33:32;;;;;;;68.93;5.50;;;;;;;;;;5074967;28;20471;-70
2023/01/31 12:36:08;;;;;;;73.00;5.30;;;;;;;;;;5074683;28;20940;-69
2023/01/31 12:38:42;;;;;;;62.87;4.90;;;;;;;;;;5073596;28;20449;-69
2023/01/31 12:41:15;;;;;;;61.07;5.27;;;;;;;;;;5074524;28;20448;-69
2023/01/31 12:43:52;;;;;;;61.00;4.37;;;;;;;;;;5074376;28;20483;-69
2023/01/31 12:46:26;;;;;;;60.67;4.70;;;;;;;;;;5074496;28;20447;-69
2023/01/31 12:49:10;;;;;;;62.67;4.50;;;;;;;;;;5073632;28;20447;-69
2023/01/31 12:51:43;;;;;;;64.10;4.53;;;;;;;;;;5073695;28;20963;-69
2023/01/31 12:54:34;;;;;;;61.37;4.10;;;;;;;;;;5073430;28;20471;-69
2023/01/31 12:57:06;;;;;;;61.83;4.00;;;;;;;;;;5059093;28;20478;-69
2023/01/31 12:59:40;;;;;;;63.77;4.27;;;;;;;;;;5073238;28;20451;-69
2023/01/31 13:02:15;;;;;;;62.50;4.00;;;;;;;;;;5074313;28;20491;-69
2023/01/31 13:04:43;;;;;;;58.40;4.07;;;;;;;;;;5074158;28;20475;-69
2023/01/31 13:07:15;;;;;;;60.87;3.63;;;;;;;;;;5074190;28;20541;-67
2023/01/31 13:09:42;;;;;;;63.10;4.83;;;;;;;;;;5073281;28;20448;-66
2023/01/31 13:12:13;;;;;;;60.50;4.00;;;;;;;;;;5073921;28;20964;-67
2023/01/31 13:14:42;;;;;;;64.43;4.60;;;;;;;;;;5073979;28;20828;-67
2023/01/31 13:17:11;;;;;;;60.60;4.07;;;;;;;;;;5073916;28;20209;-67
2023/01/31 13:19:40;;;;;;;62.42;4.25;;;;;;;;;;5073168;28;20443;-66
2023/01/31 13:22:12;;;;;;;62.37;3.70;;;;;;;;;;5073607;28;20229;-67
2023/01/31 13:24:41;;;;;;;60.90;4.00;;;;;;;;;;5073416;28;20481;-67
2023/01/31 13:27:12;;;;;;;61.87;3.90;;;;;;;;;;5073568;28;20967;-66
2023/01/31 13:29:40;;;;;;;60.85;4.40;;;;;;;;;;5073272;28;20458;-67
2023/01/31 13:32:10;;;;;;;63.17;4.47;;;;;;;;;;5073576;28;20212;-67
2023/01/31 13:34:40;;;;;;;64.27;4.00;;;;;;;;;;5073507;28;20463;-67
2023/01/31 13:37:11;;;;;;;60.90;4.60;;;;;;;;;;5073353;28;20516;-67
2023/01/31 13:39:40;;;;;;;60.25;3.65;;;;;;;;;;5072998;28;20451;-67
2023/01/31 13:42:10;;;;;;;64.17;4.63;;;;;;;;;;5073411;28;20221;-66
2023/01/31 13:44:37;;;;;;;61.40;4.63;;;;;;;;;;5073329;28;20472;-67
2023/01/31 13:47:07;;;;;;;58.80;3.70;;;;;;;;;;5073415;28;20466;-68
2023/01/31 13:49:36;;;;;;;59.92;3.85;;;;;;;;;;5072430;28;20447;-68
2023/01/31 13:52:08;;;;;;;60.17;4.50;;;;;;;;;;5073029;28;20202;-67
2023/01/31 13:54:37;;;;;;;59.97;4.50;;;;;;;;;;5073168;28;20885;-68
2023/01/31 13:57:05;;;;;;;63.50;3.90;;;;;;;;;;5073102;28;20978;-68
2023/01/31 13:59:34;;;;;;;61.37;4.97;;;;;;;;;;5072165;28;20497;-68
2023/01/31 14:02:03;;;;;;;62.60;4.47;;;;;;;;;;5072749;28;20447;-67
2023/01/31 14:04:35;;;;;;;61.60;4.40;;;;;;;;;;5072290;28;20316;-67
2023/01/31 14:07:20;;;;;;;61.47;3.95;;;;;;;;;;5072690;28;20535;-67
2023/01/31 14:10:02;;;;;;;63.70;4.68;;;;;;;;;;5072194;28;20205;-67
2023/01/31 14:12:34;;;;;;;62.70;4.20;;;;;;;;;;5072311;28;20197;-67
2023/01/31 14:15:02;;;;;;;62.00;4.80;;;;;;;;;;5072767;28;20233;-67
2023/01/31 14:18:02;;;;;;;61.67;4.72;;;;;;;;;;5072742;28;20211;-67
2023/01/31 14:20:31;;;;;;;66.50;5.20;;;;;;;;;;5010254;28;20208;-67
2023/01/31 14:23:16;;;;;;;63.67;5.43;;;;;;;;;;5010408;28;20564;-66
2023/01/31 14:25:51;;;;;;;61.67;4.63;;;;;;;;;;5089418;28;20508;-67
2023/01/31 14:28:18;;;;;;;61.92;4.80;;;;;;;;;;5089160;28;20211;-67
2023/01/31 14:30:46;;;;;;;61.28;4.32;;;;;;;;;;5088597;28;20227;-67
2023/01/31 14:33:34;;;;;;;62.35;4.95;;;;;;;;;;5089063;28;20224;-67
2023/01/31 14:36:11;;;;;;;60.35;4.55;;;;;;;;;;5084443;28;20209;-67
2023/01/31 14:38:45;;;;;;;61.35;4.53;;;;;;;;;;5088438;28;20204;-66
2023/01/31 14:41:19;;;;;;;62.67;4.43;;;;;;;;;;5089035;28;20211;-67
2023/01/31 14:43:52;;;;;;;60.90;4.50;;;;;;;;;;5088803;28;20476;-67
2023/01/31 14:46:27;;;;;;;62.85;4.60;;;;;;;;;;5089164;28;20442;-67
2023/01/31 14:49:06;;;;;;;64.75;5.45;;;;;;;;;;5088231;28;20204;-66
2023/01/31 14:51:41;;;;;;;61.47;4.20;;;;;;;;;;5088919;28;20219;-66
2023/01/31 14:54:14;;;;;;;66.50;5.10;;;;;;;;;;5089138;28;20231;-66
2023/01/31 14:56:49;;;;;;;63.85;5.40;;;;;;;;;;5088956;28;20556;-67
2023/01/31 14:59:27;;;;;;;60.92;4.75;;;;;;;;;;5088090;28;20205;-68